SELI weather

Limoncocha Airport
Limoncocha, Sucumbios Province, Ecuador

Public forecast

Using degrees Celsius for public forecast. Weather courtesy of forecast.io.

METAR (pilot weather report)

Report is more than 6 hours old.

Closest report is Francisco De Orellana Airport, 22.1 nm (40.8 km) W. Retrieved 2019/08/25 23:00 UTC (8 hours ago):

SECO 252300Z 17003KT 9999 SCT026 SCT100 30/23 Q1010 RMK A2983

TAF (pilot weather forecast)

Forecast is more than 12 hours old.

Closest forecast is Nueva Loja Airport, 33.4 nm (61.8 km) NNW. Retrieved 2018/09/09 12:03 UTC (12 months ago):

TAF TAF SCDA 091040Z 0912/1012 19004KT 9999 OVC020 TX18/0917Z TN16/1006ZLVA0571 091200 GG EBBRYZYX EBBRYZYZ EGGYYBYA KMKMYTYX KWBCYMYX MPLBYFYX MPTOYMYX 091200 SEQUYZYX SAEQ01 SEQU 091200 RRB METAR SENL 091200Z 36002KT 9999 SCT030 BKN100 22/21 Q1013 RMK A2994